Time;durP1;ratioP1;P1;durP2;ratioP2;P2;SDS_P1;SDS_P2;PMS_P1;PMS_P2;Temp;Humidity;BMP_temperature;BMP_pressure;BME280_temperature;BME280_humidity;BME280_pressure;Samples;Min_cycle;Max_cycle;Signal;HPM_P1;HPM_P2
2022/01/03 00:01:04;;;;;;;14.85;1.73;;;;;;;;;;5041431;28;20045;-56
2022/01/03 00:03:31;;;;;;;14.27;1.58;;;;;;;;;;5021108;28;20065;-58
2022/01/03 00:05:58;;;;;;;14.18;1.63;;;;;;;;;;5024761;28;20052;-58
2022/01/03 00:08:25;;;;;;;13.95;2.05;;;;;;;;;;5024903;28;20045;-59
2022/01/03 00:10:51;;;;;;;14.32;2.17;;;;;;;;;;5009117;28;20137;-58
2022/01/03 00:13:20;;;;;;;14.80;1.77;;;;;;;;;;5030117;28;20064;-55
2022/01/03 00:15:46;;;;;;;14.07;1.70;;;;;;;;;;5026291;28;20137;-57
2022/01/03 00:18:13;;;;;;;18.75;1.80;;;;;;;;;;5027724;28;20136;-60
2022/01/03 00:20:40;;;;;;;11.38;1.38;;;;;;;;;;5024388;28;20071;-58
2022/01/03 00:23:07;;;;;;;10.50;1.30;;;;;;;;;;5027965;28;20150;-57
2022/01/03 00:25:36;;;;;;;10.45;1.48;;;;;;;;;;5024715;28;20084;-56
2022/01/03 00:28:12;;;;;;;21.73;2.00;;;;;;;;;;5028083;28;20061;-58
2022/01/03 00:30:43;;;;;;;13.20;1.73;;;;;;;;;;5024421;28;20061;-53
2022/01/03 00:33:11;;;;;;;18.77;1.75;;;;;;;;;;5028249;28;20135;-58
2022/01/03 00:35:38;;;;;;;19.33;2.13;;;;;;;;;;5023953;28;20076;-57
2022/01/03 00:38:07;;;;;;;26.58;2.33;;;;;;;;;;5027661;28;20057;-58
2022/01/03 00:40:33;;;;;;;15.88;2.65;;;;;;;;;;5024000;28;20072;-56
2022/01/03 00:43:00;;;;;;;32.38;2.55;;;;;;;;;;5028091;28;20060;-60
2022/01/03 00:45:27;;;;;;;12.13;1.70;;;;;;;;;;5023796;28;20142;-55
2022/01/03 00:47:55;;;;;;;19.08;2.00;;;;;;;;;;5027849;28;20068;-54
2022/01/03 00:50:22;;;;;;;;;;;;;;;;;;5024828;28;20056;-58
2022/01/03 00:52:49;;;;;;;26.73;3.25;;;;;;;;;;5028956;28;19989;-57
2022/01/03 00:55:16;;;;;;;13.75;1.98;;;;;;;;;;5024982;28;20057;-53
2022/01/03 00:57:49;;;;;;;27.77;2.42;;;;;;;;;;5027923;28;20169;-56
2022/01/03 01:00:16;;;;;;;28.27;3.25;;;;;;;;;;5027744;28;20057;-57
2022/01/03 01:02:46;;;;;;;19.30;1.95;;;;;;;;;;5023954;28;20069;-58
2022/01/03 01:05:14;;;;;;;12.15;1.25;;;;;;;;;;5028462;28;20109;-56
2022/01/03 01:07:41;;;;;;;22.20;2.27;;;;;;;;;;5024136;28;20115;-60
2022/01/03 01:10:08;;;;;;;13.20;1.95;;;;;;;;;;5029487;28;20314;-58
2022/01/03 01:12:35;;;;;;;19.92;2.47;;;;;;;;;;5028469;28;20224;-59
2022/01/03 01:15:01;;;;;;;20.88;2.28;;;;;;;;;;5047487;28;20049;-59
2022/01/03 01:17:28;;;;;;;22.88;1.70;;;;;;;;;;5031190;28;20049;-57
2022/01/03 01:19:57;;;;;;;20.58;1.90;;;;;;;;;;5027213;28;20057;-55
2022/01/03 01:22:25;;;;;;;22.27;2.30;;;;;;;;;;5024922;28;20085;-56
2022/01/03 01:25:21;;;;;;;11.83;1.80;;;;;;;;;;5029282;28;20099;-58
2022/01/03 01:27:48;;;;;;;21.73;2.30;;;;;;;;;;5026624;28;20057;-59
2022/01/03 01:30:15;;;;;;;15.35;2.13;;;;;;;;;;5030219;28;20155;-58
2022/01/03 01:32:43;;;;;;;28.02;2.05;;;;;;;;;;5024049;28;20049;-56
2022/01/03 01:35:10;;;;;;;23.05;2.30;;;;;;;;;;5025638;28;20148;-57
2022/01/03 01:37:41;;;;;;;19.67;2.10;;;;;;;;;;5023453;28;20045;-59
2022/01/03 01:40:09;;;;;;;12.57;1.75;;;;;;;;;;5026812;28;20113;-59
2022/01/03 01:42:36;;;;;;;20.52;2.13;;;;;;;;;;5023581;28;20041;-56
2022/01/03 01:45:08;;;;;;;14.80;1.40;;;;;;;;;;5027131;28;20045;-55
2022/01/03 01:47:38;;;;;;;15.57;1.48;;;;;;;;;;5022642;28;20104;-58
2022/01/03 01:50:07;;;;;;;13.57;1.80;;;;;;;;;;5026726;28;20202;-56
2022/01/03 01:52:35;;;;;;;25.13;2.80;;;;;;;;;;5023407;28;20077;-57
2022/01/03 01:55:05;;;;;;;18.70;2.30;;;;;;;;;;5027051;28;20053;-56
2022/01/03 01:57:39;;;;;;;17.42;1.65;;;;;;;;;;5026349;28;20077;-58
2022/01/03 02:00:08;;;;;;;16.40;1.52;;;;;;;;;;5007041;28;20069;-54
2022/01/03 02:02:36;;;;;;;16.25;2.03;;;;;;;;;;5007452;28;20059;-60
2022/01/03 02:05:09;;;;;;;15.80;1.55;;;;;;;;;;5003399;28;20063;-55
2022/01/03 02:07:46;;;;;;;24.30;2.22;;;;;;;;;;5006857;28;20148;-57
2022/01/03 02:10:16;;;;;;;14.73;1.90;;;;;;;;;;4999458;28;20058;-54
2022/01/03 02:12:43;;;;;;;12.65;1.67;;;;;;;;;;4991999;28;20042;-56
2022/01/03 02:15:11;;;;;;;22.23;2.80;;;;;;;;;;5003388;28;20100;-58
2022/01/03 02:17:38;;;;;;;21.45;2.20;;;;;;;;;;5006711;28;20054;-61
2022/01/03 02:20:08;;;;;;;14.52;2.08;;;;;;;;;;5002383;28;20125;-56
2022/01/03 02:22:35;;;;;;;15.25;2.05;;;;;;;;;;5006716;28;20064;-57
2022/01/03 02:25:01;;;;;;;20.85;2.58;;;;;;;;;;5003481;28;20101;-57
2022/01/03 02:27:27;;;;;;;24.63;2.22;;;;;;;;;;5007676;28;20054;-56
2022/01/03 02:29:54;;;;;;;17.10;2.05;;;;;;;;;;5004493;28;20054;-58
2022/01/03 02:32:21;;;;;;;19.85;1.60;;;;;;;;;;5006258;28;20049;-58
2022/01/03 02:34:48;;;;;;;18.83;2.15;;;;;;;;;;5002892;28;20131;-55
2022/01/03 02:37:16;;;;;;;16.77;2.53;;;;;;;;;;5006285;28;20053;-56
2022/01/03 02:39:43;;;;;;;11.18;1.60;;;;;;;;;;4999675;28;20069;-57
2022/01/03 02:42:10;;;;;;;23.48;1.98;;;;;;;;;;4986792;28;20121;-59
2022/01/03 02:44:36;;;;;;;18.85;2.55;;;;;;;;;;4984947;28;20169;-55
2022/01/03 02:47:03;;;;;;;14.82;1.83;;;;;;;;;;5005817;28;20057;-58
2022/01/03 02:49:30;;;;;;;12.38;2.22;;;;;;;;;;5005984;28;20131;-55
2022/01/03 02:51:56;;;;;;;18.95;2.15;;;;;;;;;;5002915;28;20058;-59
2022/01/03 02:54:24;;;;;;;24.50;2.13;;;;;;;;;;5005601;28;20056;-57
2022/01/03 02:56:51;;;;;;;17.00;2.67;;;;;;;;;;5002189;28;20096;-58
2022/01/03 02:59:19;;;;;;;26.45;2.53;;;;;;;;;;5005460;28;20060;-60
2022/01/03 03:01:45;;;;;;;16.70;1.83;;;;;;;;;;5004923;28;20056;-58
2022/01/03 03:04:12;;;;;;;15.60;1.73;;;;;;;;;;5028776;28;20053;-57
2022/01/03 03:06:38;;;;;;;15.52;1.85;;;;;;;;;;5049194;28;20126;-58
2022/01/03 03:09:07;;;;;;;15.48;1.80;;;;;;;;;;5062855;28;20144;-55
2022/01/03 03:11:35;;;;;;;17.50;1.77;;;;;;;;;;5052299;28;20048;-56
2022/01/03 03:14:01;;;;;;;26.13;1.95;;;;;;;;;;5044708;28;20052;-58
2022/01/03 03:16:28;;;;;;;13.07;2.00;;;;;;;;;;5038928;28;20223;-55
2022/01/03 03:18:56;;;;;;;17.60;1.80;;;;;;;;;;5028966;28;20135;-59
2022/01/03 03:21:22;;;;;;;16.70;1.57;;;;;;;;;;5026221;28;20135;-55
2022/01/03 03:23:49;;;;;;;16.35;2.33;;;;;;;;;;5030192;28;20057;-57
2022/01/03 03:26:15;;;;;;;11.98;1.83;;;;;;;;;;5026097;28;20115;-58
2022/01/03 03:28:43;;;;;;;19.35;2.08;;;;;;;;;;5045972;28;20116;-59
2022/01/03 03:31:10;;;;;;;21.65;2.40;;;;;;;;;;5027127;28;20057;-56
2022/01/03 03:33:38;;;;;;;20.27;2.30;;;;;;;;;;5025253;28;20048;-57
2022/01/03 03:36:05;;;;;;;21.02;2.40;;;;;;;;;;5029053;28;20134;-55
2022/01/03 03:38:37;;;;;;;11.63;2.40;;;;;;;;;;5041623;28;20040;-52
2022/01/03 03:41:04;;;;;;;18.63;1.65;;;;;;;;;;5029236;28;20057;-58
2022/01/03 03:43:32;;;;;;;10.15;1.20;;;;;;;;;;5024931;28;20047;-54
2022/01/03 03:46:00;;;;;;;17.40;2.07;;;;;;;;;;5028725;28;20060;-59
2022/01/03 03:48:26;;;;;;;27.90;2.07;;;;;;;;;;5033976;28;20056;-59
2022/01/03 03:50:53;;;;;;;12.98;1.85;;;;;;;;;;5045554;28;20049;-57
2022/01/03 03:53:20;;;;;;;18.10;2.10;;;;;;;;;;5051154;28;20152;-59
2022/01/03 03:55:48;;;;;;;23.10;2.58;;;;;;;;;;5030163;28;20077;-57
2022/01/03 03:58:14;;;;;;;16.98;2.03;;;;;;;;;;5027008;28;20080;-58
2022/01/03 04:00:41;;;;;;;21.77;2.53;;;;;;;;;;5031547;28;20065;-59
2022/01/03 04:03:09;;;;;;;21.33;2.10;;;;;;;;;;5022996;28;20108;-61
2022/01/03 04:05:35;;;;;;;17.30;1.80;;;;;;;;;;5024809;28;20061;-56
2022/01/03 04:08:02;;;;;;;20.40;2.15;;;;;;;;;;5021295;28;20403;-58
2022/01/03 04:10:28;;;;;;;28.98;2.20;;;;;;;;;;5025065;28;20080;-54
2022/01/03 04:12:55;;;;;;;16.02;2.03;;;;;;;;;;5027811;28;20143;-57
2022/01/03 04:15:21;;;;;;;17.15;2.63;;;;;;;;;;5024673;28;20127;-58
2022/01/03 04:17:48;;;;;;;18.63;1.95;;;;;;;;;;5024517;28;20054;-57
2022/01/03 04:20:20;;;;;;;20.98;2.55;;;;;;;;;;5020948;28;20053;-60
2022/01/03 04:22:46;;;;;;;12.00;1.55;;;;;;;;;;5024979;28;20053;-57
2022/01/03 04:25:14;;;;;;;11.68;1.50;;;;;;;;;;5021036;28;20053;-58
2022/01/03 04:27:41;;;;;;;17.60;2.70;;;;;;;;;;5024608;28;20053;-60
2022/01/03 04:30:09;;;;;;;7.35;1.15;;;;;;;;;;5020266;28;20060;-61
2022/01/03 04:32:36;;;;;;;20.02;2.88;;;;;;;;;;5024955;28;20148;-59
2022/01/03 04:35:02;;;;;;;17.45;1.83;;;;;;;;;;5021114;28;20136;-56
2022/01/03 04:37:31;;;;;;;17.58;1.58;;;;;;;;;;5040938;28;20057;-57
2022/01/03 04:39:58;;;;;;;16.40;1.48;;;;;;;;;;5020634;28;20080;-58
2022/01/03 04:42:25;;;;;;;23.95;2.17;;;;;;;;;;5024647;28;20080;-56
2022/01/03 04:44:52;;;;;;;28.77;2.33;;;;;;;;;;5020771;28;20053;-58
2022/01/03 04:47:18;;;;;;;24.38;3.38;;;;;;;;;;5024133;28;20060;-58
2022/01/03 04:49:45;;;;;;;15.23;1.88;;;;;;;;;;5019916;28;20062;-57
2022/01/03 04:52:11;;;;;;;24.10;1.85;;;;;;;;;;5024746;28;20041;-58
2022/01/03 04:54:39;;;;;;;16.15;1.85;;;;;;;;;;5036343;28;20091;-56
2022/01/03 04:57:06;;;;;;;10.83;1.50;;;;;;;;;;5028317;28;20083;-60
2022/01/03 04:59:32;;;;;;;19.98;2.13;;;;;;;;;;5029351;28;20307;-54
2022/01/03 05:02:00;;;;;;;22.70;2.53;;;;;;;;;;5023597;28;20136;-60
2022/01/03 05:04:26;;;;;;;17.55;2.53;;;;;;;;;;5028333;28;20045;-58
2022/01/03 05:06:53;;;;;;;31.23;2.55;;;;;;;;;;5023641;28;20081;-58
2022/01/03 05:09:19;;;;;;;16.17;2.17;;;;;;;;;;5027416;28;20148;-60
2022/01/03 05:11:47;;;;;;;18.17;1.40;;;;;;;;;;5024455;28;20113;-60
2022/01/03 05:14:14;;;;;;;23.07;2.00;;;;;;;;;;5045339;28;20053;-59
2022/01/03 05:16:40;;;;;;;19.33;2.10;;;;;;;;;;5031841;28;20108;-60
2022/01/03 05:19:07;;;;;;;17.65;2.47;;;;;;;;;;5027635;28;20143;-60
2022/01/03 05:21:33;;;;;;;20.15;1.88;;;;;;;;;;5024099;28;20053;-61
2022/01/03 05:24:00;;;;;;;27.17;2.45;;;;;;;;;;5027540;28;20061;-57
2022/01/03 05:26:26;;;;;;;17.60;1.90;;;;;;;;;;5024039;28;20045;-55
2022/01/03 05:28:55;;;;;;;15.57;2.08;;;;;;;;;;5027253;28;20061;-59
2022/01/03 05:31:22;;;;;;;13.40;1.98;;;;;;;;;;5025564;28;20069;-59
2022/01/03 05:33:48;;;;;;;12.52;1.75;;;;;;;;;;5031438;28;20068;-59
2022/01/03 05:36:15;;;;;;;20.98;1.73;;;;;;;;;;5025398;28;20053;-57
2022/01/03 05:38:44;;;;;;;20.95;2.63;;;;;;;;;;5027179;28;20058;-57
2022/01/03 05:41:10;;;;;;;13.55;1.58;;;;;;;;;;5027428;28;20061;-61
2022/01/03 05:43:36;;;;;;;14.40;2.08;;;;;;;;;;5024020;28;20085;-57
2022/01/03 05:46:04;;;;;;;22.83;2.20;;;;;;;;;;5028822;28;20106;-58
2022/01/03 05:48:32;;;;;;;14.27;3.00;;;;;;;;;;5023853;28;20160;-57
2022/01/03 05:50:58;;;;;;;22.90;2.70;;;;;;;;;;5028433;28;20088;-56
2022/01/03 05:53:25;;;;;;;18.33;2.60;;;;;;;;;;5023289;28;20149;-57
2022/01/03 05:55:51;;;;;;;22.45;2.67;;;;;;;;;;5027085;28;20095;-54
2022/01/03 05:58:18;;;;;;;22.98;2.45;;;;;;;;;;5022855;28;20061;-58
2022/01/03 06:00:46;;;;;;;33.10;3.50;;;;;;;;;;5024850;28;20152;-57
2022/01/03 06:03:15;;;;;;;18.73;2.03;;;;;;;;;;5020764;28;20063;-57
2022/01/03 06:06:04;;;;;;;24.80;2.35;;;;;;;;;;5041262;28;20057;-57
2022/01/03 06:08:30;;;;;;;23.02;2.25;;;;;;;;;;5026932;28;20050;-59
2022/01/03 06:10:57;;;;;;;14.07;1.63;;;;;;;;;;5035417;28;20092;-60
2022/01/03 06:13:23;;;;;;;12.40;1.85;;;;;;;;;;5037282;28;20044;-56
2022/01/03 06:15:50;;;;;;;17.23;1.73;;;;;;;;;;5025071;28;20115;-54
2022/01/03 06:18:18;;;;;;;18.67;2.25;;;;;;;;;;5032363;28;20077;-56
2022/01/03 06:20:45;;;;;;;20.58;2.92;;;;;;;;;;5024791;28;20061;-56
2022/01/03 06:23:12;;;;;;;17.33;3.28;;;;;;;;;;5020243;28;20176;-57
2022/01/03 06:25:39;;;;;;;23.30;2.67;;;;;;;;;;5024914;28;20057;-57
2022/01/03 06:28:07;;;;;;;17.38;2.47;;;;;;;;;;5023110;28;20083;-57
2022/01/03 06:30:33;;;;;;;14.20;2.03;;;;;;;;;;5024834;28;20081;-56
2022/01/03 06:33:00;;;;;;;24.23;1.63;;;;;;;;;;5027016;28;20150;-58
2022/01/03 06:35:28;;;;;;;16.70;2.00;;;;;;;;;;5021867;28;20088;-55
2022/01/03 06:37:54;;;;;;;9.50;1.58;;;;;;;;;;5025263;28;20090;-56
2022/01/03 06:40:21;;;;;;;29.75;4.20;;;;;;;;;;5020460;28;20140;-57
2022/01/03 06:42:47;;;;;;;23.77;3.17;;;;;;;;;;5025209;28;20052;-57
2022/01/03 06:45:16;;;;;;;20.42;2.08;;;;;;;;;;5038068;28;20156;-54
2022/01/03 06:47:43;;;;;;;11.35;1.33;;;;;;;;;;5034172;28;20141;-58
2022/01/03 06:50:11;;;;;;;11.15;1.85;;;;;;;;;;5031326;28;20049;-57
2022/01/03 06:52:41;;;;;;;9.93;1.48;;;;;;;;;;5026323;28;20228;-58
2022/01/03 06:55:09;;;;;;;11.65;1.98;;;;;;;;;;5021981;28;20053;-59
2022/01/03 06:57:35;;;;;;;13.15;1.83;;;;;;;;;;5025621;28;20053;-58
2022/01/03 07:00:02;;;;;;;16.23;1.77;;;;;;;;;;5022267;28;20060;-62
2022/01/03 07:02:28;;;;;;;12.10;1.58;;;;;;;;;;5034972;28;20057;-58
2022/01/03 07:04:55;;;;;;;12.57;1.65;;;;;;;;;;5059784;28;20059;-57
2022/01/03 07:07:22;;;;;;;11.15;2.03;;;;;;;;;;5048430;28;20132;-61
2022/01/03 07:09:52;;;;;;;15.48;1.50;;;;;;;;;;5059016;28;20049;-58
2022/01/03 07:12:18;;;;;;;16.63;2.22;;;;;;;;;;5043981;28;20161;-57
2022/01/03 07:20:13;;;;;;;7.95;1.50;;;;;;;;;;5019552;28;20060;-58
2022/01/03 07:22:40;;;;;;;17.67;2.20;;;;;;;;;;5061805;28;20103;-59
2022/01/03 07:25:09;;;;;;;14.63;2.00;;;;;;;;;;5045164;28;20072;-58
2022/01/03 07:27:35;;;;;;;9.48;1.67;;;;;;;;;;5040804;28;20060;-60
2022/01/03 07:30:02;;;;;;;21.10;2.13;;;;;;;;;;5044760;28;20057;-56
2022/01/03 07:32:29;;;;;;;13.55;1.90;;;;;;;;;;5027084;28;20049;-57
2022/01/03 07:34:55;;;;;;;11.55;1.75;;;;;;;;;;5043055;28;20076;-57
2022/01/03 07:37:21;;;;;;;17.23;1.70;;;;;;;;;;5040270;28;20071;-57
2022/01/03 07:39:48;;;;;;;12.02;1.90;;;;;;;;;;5044721;28;20053;-57
2022/01/03 07:42:16;;;;;;;14.02;2.00;;;;;;;;;;5030481;28;20080;-59
2022/01/03 07:44:43;;;;;;;18.53;2.57;;;;;;;;;;5024608;28;20144;-57
2022/01/03 07:47:09;;;;;;;13.15;1.98;;;;;;;;;;5020950;28;20123;-56
2022/01/03 07:49:36;;;;;;;26.98;2.55;;;;;;;;;;5024817;28;20061;-59
2022/01/03 07:52:04;;;;;;;12.85;1.73;;;;;;;;;;5021427;28;20049;-57
2022/01/03 07:54:30;;;;;;;11.65;1.80;;;;;;;;;;5024578;28;20046;-59
2022/01/03 07:56:56;;;;;;;16.17;2.80;;;;;;;;;;5020898;28;20056;-57
2022/01/03 07:59:24;;;;;;;16.58;2.22;;;;;;;;;;5025396;28;20145;-58
2022/01/03 08:01:51;;;;;;;20.17;2.17;;;;;;;;;;5022839;28;20052;-59
2022/01/03 08:04:18;;;;;;;13.32;1.65;;;;;;;;;;5028633;28;20113;-58
2022/01/03 08:06:45;;;;;;;9.00;1.75;;;;;;;;;;5028465;28;20095;-57
2022/01/03 08:09:12;;;;;;;18.58;2.20;;;;;;;;;;5039753;28;20144;-56
2022/01/03 08:11:38;;;;;;;7.07;1.23;;;;;;;;;;5044193;28;20167;-56
2022/01/03 08:14:05;;;;;;;14.38;1.90;;;;;;;;;;5027978;28;20052;-56
2022/01/03 08:16:33;;;;;;;12.05;2.00;;;;;;;;;;5045490;28;20060;-58
2022/01/03 08:18:59;;;;;;;14.60;2.00;;;;;;;;;;5034115;28;20053;-58
2022/01/03 08:21:26;;;;;;;23.77;1.88;;;;;;;;;;5061307;28;20397;-60
2022/01/03 08:23:52;;;;;;;15.07;2.13;;;;;;;;;;5033058;28;20053;-57
2022/01/03 08:26:19;;;;;;;21.83;2.40;;;;;;;;;;5044738;28;20136;-60
2022/01/03 08:28:45;;;;;;;11.98;1.60;;;;;;;;;;5024804;28;20088;-57
2022/01/03 08:31:12;;;;;;;11.55;1.67;;;;;;;;;;5032269;28;20114;-58
2022/01/03 08:33:43;;;;;;;16.50;1.90;;;;;;;;;;5030432;28;20062;-55
2022/01/03 08:36:09;;;;;;;22.15;2.40;;;;;;;;;;5049107;28;20060;-58
2022/01/03 08:38:36;;;;;;;11.48;1.75;;;;;;;;;;5061509;28;20072;-58
2022/01/03 08:41:03;;;;;;;12.77;1.85;;;;;;;;;;5034849;28;20045;-60
2022/01/03 08:43:29;;;;;;;21.48;2.25;;;;;;;;;;5030301;28;20056;-58
2022/01/03 08:45:56;;;;;;;13.30;1.77;;;;;;;;;;5047583;28;20053;-57
2022/01/03 08:48:22;;;;;;;16.92;2.15;;;;;;;;;;5031432;28;20057;-58
2022/01/03 08:50:50;;;;;;;18.10;2.35;;;;;;;;;;5028457;28;20052;-59
2022/01/03 08:53:17;;;;;;;13.23;1.80;;;;;;;;;;5032061;28;20083;-55
2022/01/03 08:55:43;;;;;;;16.15;2.30;;;;;;;;;;5053072;28;20060;-58
2022/01/03 08:58:12;;;;;;;14.05;1.58;;;;;;;;;;5047871;28;20112;-58
2022/01/03 09:00:42;;;;;;;17.38;1.90;;;;;;;;;;5049799;28;20056;-58
2022/01/03 09:03:08;;;;;;;15.27;1.58;;;;;;;;;;5030893;28;20144;-57
2022/01/03 09:05:35;;;;;;;17.25;1.83;;;;;;;;;;5027109;28;20088;-60
2022/01/03 09:08:04;;;;;;;9.38;1.45;;;;;;;;;;5030676;28;20068;-57
2022/01/03 09:10:31;;;;;;;16.90;2.17;;;;;;;;;;5032995;28;20044;-59
2022/01/03 09:12:57;;;;;;;14.88;2.58;;;;;;;;;;5043658;28;20053;-57
2022/01/03 09:15:24;;;;;;;11.48;2.42;;;;;;;;;;5030028;28;20076;-58
2022/01/03 09:17:50;;;;;;;21.13;2.78;;;;;;;;;;5063971;28;20073;-57
2022/01/03 09:20:19;;;;;;;14.45;1.67;;;;;;;;;;5043295;28;20073;-56
2022/01/03 09:22:48;;;;;;;20.20;1.98;;;;;;;;;;5030534;28;20060;-57
2022/01/03 09:30:53;;;;;;;22.70;2.55;;;;;;;;;;4992672;28;20084;-56
2022/01/03 09:33:19;;;;;;;15.40;1.85;;;;;;;;;;5047758;28;20059;-57
2022/01/03 09:35:46;;;;;;;16.35;2.00;;;;;;;;;;5043373;28;20052;-59
2022/01/03 09:38:13;;;;;;;23.38;2.10;;;;;;;;;;5047951;28;20107;-55
2022/01/03 09:40:41;;;;;;;19.20;2.13;;;;;;;;;;5032565;28;20049;-56
2022/01/03 09:43:09;;;;;;;9.25;1.90;;;;;;;;;;5047621;28;20053;-59
2022/01/03 09:45:37;;;;;;;11.00;1.70;;;;;;;;;;5046464;28;20053;-57
2022/01/03 09:48:06;;;;;;;16.88;1.98;;;;;;;;;;5043769;28;20114;-55
2022/01/03 09:50:34;;;;;;;14.93;2.35;;;;;;;;;;5030410;28;20080;-57
2022/01/03 09:53:02;;;;;;;13.88;1.75;;;;;;;;;;5041704;28;20148;-59
2022/01/03 09:55:30;;;;;;;10.45;1.73;;;;;;;;;;5030382;28;20072;-58
2022/01/03 09:57:58;;;;;;;13.88;2.00;;;;;;;;;;5026952;28;20048;-59
2022/01/03 10:00:26;;;;;;;12.55;2.00;;;;;;;;;;5030430;28;20126;-58
2022/01/03 10:02:54;;;;;;;15.90;2.10;;;;;;;;;;5036077;28;20061;-57
2022/01/03 10:05:21;;;;;;;16.50;2.55;;;;;;;;;;5047213;28;20131;-56
2022/01/03 10:07:48;;;;;;;28.60;2.58;;;;;;;;;;5036074;28;20045;-58
2022/01/03 10:10:14;;;;;;;13.07;2.20;;;;;;;;;;5031681;28;20051;-57
2022/01/03 10:12:42;;;;;;;14.88;2.38;;;;;;;;;;5034012;28;20118;-57
2022/01/03 10:15:11;;;;;;;12.70;1.87;;;;;;;;;;5053559;28;20049;-57
2022/01/03 10:17:38;;;;;;;20.65;2.22;;;;;;;;;;5036354;28;20111;-56
2022/01/03 10:20:06;;;;;;;12.07;2.00;;;;;;;;;;5030335;28;20134;-57
2022/01/03 10:22:33;;;;;;;28.10;2.35;;;;;;;;;;5026552;28;20056;-55
2022/01/03 10:25:01;;;;;;;16.58;2.60;;;;;;;;;;5029720;28;20077;-57
2022/01/03 10:27:44;;;;;;;20.95;2.55;;;;;;;;;;5026764;28;20048;-59
2022/01/03 10:30:28;;;;;;;15.80;2.03;;;;;;;;;;5024650;28;20107;-56
2022/01/03 10:32:55;;;;;;;17.33;1.83;;;;;;;;;;5024399;28;20067;-57
2022/01/03 10:35:22;;;;;;;9.70;1.90;;;;;;;;;;5028776;28;20052;-58
2022/01/03 10:37:49;;;;;;;16.83;2.63;;;;;;;;;;5028170;28;20044;-56
2022/01/03 10:40:17;;;;;;;12.10;1.75;;;;;;;;;;5029194;28;20074;-57
2022/01/03 10:42:44;;;;;;;19.92;2.28;;;;;;;;;;5042901;28;20068;-55
2022/01/03 10:45:10;;;;;;;11.13;1.52;;;;;;;;;;5024148;28;20079;-57
2022/01/03 10:47:41;;;;;;;18.33;2.13;;;;;;;;;;5026838;28;20060;-57
2022/01/03 10:50:16;;;;;;;25.58;2.53;;;;;;;;;;5024974;28;20053;-57
2022/01/03 10:52:43;;;;;;;19.42;1.85;;;;;;;;;;5038861;28;20122;-57
2022/01/03 10:55:12;;;;;;;22.02;2.53;;;;;;;;;;5017182;28;20111;-56
2022/01/03 10:57:59;;;;;;;17.92;2.05;;;;;;;;;;5020519;28;20072;-56
2022/01/03 11:00:29;;;;;;;13.10;1.83;;;;;;;;;;5033297;28;20049;-57
2022/01/03 11:03:25;;;;;;;10.15;1.88;;;;;;;;;;5023438;28;20069;-55
2022/01/03 11:05:55;;;;;;;22.80;2.38;;;;;;;;;;5019691;28;20061;-54
2022/01/03 11:11:06;;;;;;;16.40;2.40;;;;;;;;;;5019962;28;20049;-57
2022/01/03 11:13:37;;;;;;;18.85;2.20;;;;;;;;;;5018623;28;20080;-56
2022/01/03 11:16:05;;;;;;;21.95;1.90;;;;;;;;;;5020209;28;20068;-56
2022/01/03 11:18:33;;;;;;;17.85;2.28;;;;;;;;;;5023640;28;20057;-57
2022/01/03 11:21:00;;;;;;;;;;;;;;;;;;5020590;28;20053;-56
2022/01/03 11:23:26;;;;;;;7.95;1.60;;;;;;;;;;5025302;28;19925;-56
2022/01/03 11:25:54;;;;;;;20.25;2.33;;;;;;;;;;5030358;28;20128;-55
2022/01/03 11:28:21;;;;;;;16.08;2.33;;;;;;;;;;5022871;28;20057;-58
2022/01/03 11:30:48;;;;;;;13.30;2.15;;;;;;;;;;5031664;28;20135;-56
2022/01/03 11:33:15;;;;;;;13.00;1.65;;;;;;;;;;5031846;28;20072;-56
2022/01/03 11:35:47;;;;;;;15.90;2.25;;;;;;;;;;5020031;28;20056;-58
2022/01/03 11:38:15;;;;;;;17.73;2.42;;;;;;;;;;5034108;28;20129;-56
2022/01/03 11:40:42;;;;;;;16.58;2.35;;;;;;;;;;5020727;28;20093;-56
2022/01/03 11:43:09;;;;;;;9.10;1.92;;;;;;;;;;5036271;28;20107;-58
2022/01/03 11:45:36;;;;;;;10.93;1.80;;;;;;;;;;5038096;28;20049;-59
2022/01/03 11:48:03;;;;;;;18.52;2.08;;;;;;;;;;5026955;28;20123;-57
2022/01/03 11:50:30;;;;;;;20.33;2.45;;;;;;;;;;5025877;28;20136;-58
2022/01/03 11:52:57;;;;;;;17.08;1.98;;;;;;;;;;5028410;28;20119;-56
2022/01/03 11:55:25;;;;;;;15.03;2.13;;;;;;;;;;5022497;28;20143;-58
2022/01/03 11:58:11;;;;;;;23.95;2.05;;;;;;;;;;5019425;28;20053;-56
2022/01/03 12:03:39;;;;;;;13.02;1.77;;;;;;;;;;5033815;28;20106;-57
2022/01/03 12:06:09;;;;;;;15.25;2.17;;;;;;;;;;5028165;28;20053;-57
2022/01/03 12:08:38;;;;;;;15.18;2.22;;;;;;;;;;5024103;28;20053;-56
2022/01/03 12:11:17;;;;;;;17.02;2.28;;;;;;;;;;5026443;28;20069;-58
2022/01/03 12:13:48;;;;;;;10.65;2.00;;;;;;;;;;5022764;28;20049;-56
2022/01/03 12:16:14;;;;;;;17.77;1.67;;;;;;;;;;5020857;28;20062;-56
2022/01/03 12:18:56;;;;;;;9.52;1.48;;;;;;;;;;5023627;28;20089;-54
2022/01/03 12:21:37;;;;;;;20.05;2.20;;;;;;;;;;5037586;28;20049;-56
2022/01/03 12:24:25;;;;;;;21.70;2.30;;;;;;;;;;5030367;28;20089;-57
2022/01/03 12:27:06;;;;;;;19.33;2.47;;;;;;;;;;5039018;28;20057;-58
2022/01/03 12:30:05;;;;;;;13.05;1.92;;;;;;;;;;5026365;28;20053;-59
2022/01/03 12:32:31;;;;;;;;;;;;;;;;;;5023675;28;20061;-57
2022/01/03 12:35:13;;;;;;;17.02;1.98;;;;;;;;;;5027294;28;19924;-54
2022/01/03 12:37:42;;;;;;;12.93;1.65;;;;;;;;;;5022388;28;20045;-56
2022/01/03 12:40:14;;;;;;;10.50;1.58;;;;;;;;;;5027076;28;20064;-55
2022/01/03 12:42:54;;;;;;;15.60;1.73;;;;;;;;;;5024156;28;20084;-54
2022/01/03 12:45:35;;;;;;;20.38;1.63;;;;;;;;;;5026908;28;20144;-57
2022/01/03 12:48:18;;;;;;;11.35;1.50;;;;;;;;;;5022873;28;20061;-55
2022/01/03 12:50:45;;;;;;;13.18;1.70;;;;;;;;;;5027112;28;20053;-58
2022/01/03 12:53:32;;;;;;;13.38;2.70;;;;;;;;;;5031563;28;20119;-54
2022/01/03 12:56:08;;;;;;;8.40;1.10;;;;;;;;;;5026743;28;20073;-54
2022/01/03 12:58:39;;;;;;;14.85;1.55;;;;;;;;;;5032224;28;20053;-55
2022/01/03 13:01:08;;;;;;;9.25;1.60;;;;;;;;;;5026030;28;20057;-55
2022/01/03 13:03:42;;;;;;;12.60;1.80;;;;;;;;;;5007815;28;20081;-55
2022/01/03 13:06:09;;;;;;;12.85;1.50;;;;;;;;;;5010985;28;20049;-55
2022/01/03 13:08:38;;;;;;;9.13;1.35;;;;;;;;;;5003905;28;20116;-57
2022/01/03 13:11:08;;;;;;;17.92;1.80;;;;;;;;;;5008280;28;20072;-57
2022/01/03 13:13:35;;;;;;;8.40;1.23;;;;;;;;;;5009162;28;20057;-56
2022/01/03 13:16:16;;;;;;;12.68;1.33;;;;;;;;;;5001813;28;20109;-56
2022/01/03 13:18:44;;;;;;;9.32;2.28;;;;;;;;;;4990112;28;20065;-56
2022/01/03 13:21:13;;;;;;;15.32;1.77;;;;;;;;;;5003661;28;20120;-58
2022/01/03 13:23:40;;;;;;;7.13;1.30;;;;;;;;;;5009161;28;20141;-54
2022/01/03 13:26:07;;;;;;;13.98;1.63;;;;;;;;;;5003947;28;20062;-55
2022/01/03 13:28:44;;;;;;;5.03;1.13;;;;;;;;;;5007278;28;20145;-57
2022/01/03 13:31:12;;;;;;;11.10;1.48;;;;;;;;;;5003757;28;20154;-57
2022/01/03 13:33:39;;;;;;;10.25;1.48;;;;;;;;;;5007710;28;20159;-58
2022/01/03 13:36:06;;;;;;;11.15;1.65;;;;;;;;;;5003882;28;20073;-57
2022/01/03 13:38:35;;;;;;;9.55;1.80;;;;;;;;;;5007376;28;20135;-53
2022/01/03 13:41:14;;;;;;;6.60;1.20;;;;;;;;;;5003989;28;20058;-59
2022/01/03 13:43:44;;;;;;;7.88;1.58;;;;;;;;;;5007272;28;20061;-56
2022/01/03 13:49:12;;;;;;;7.38;1.17;;;;;;;;;;5006912;28;20080;-57
2022/01/03 13:51:39;;;;;;;8.52;1.33;;;;;;;;;;5003129;28;20092;-56
2022/01/03 13:54:05;;;;;;;8.90;1.48;;;;;;;;;;5007128;28;20074;-56
2022/01/03 13:56:43;;;;;;;5.25;0.95;;;;;;;;;;5002844;28;20053;-57
2022/01/03 13:59:09;;;;;;;7.57;1.60;;;;;;;;;;5006980;28;20100;-57
2022/01/03 14:01:36;;;;;;;8.05;1.35;;;;;;;;;;5004489;28;20089;-57
2022/01/03 14:04:03;;;;;;;9.32;1.30;;;;;;;;;;5030298;28;20136;-55
2022/01/03 14:06:29;;;;;;;11.52;1.80;;;;;;;;;;5027366;28;20060;-57
2022/01/03 14:08:56;;;;;;;7.65;1.38;;;;;;;;;;5046670;28;20061;-57
2022/01/03 14:11:23;;;;;;;12.20;1.88;;;;;;;;;;5058868;28;20132;-57
2022/01/03 14:13:52;;;;;;;9.77;1.20;;;;;;;;;;5040661;28;20122;-57
2022/01/03 14:16:27;;;;;;;11.65;1.55;;;;;;;;;;5043753;28;20067;-58
2022/01/03 14:18:54;;;;;;;6.70;1.20;;;;;;;;;;5029720;28;20059;-55
2022/01/03 14:21:21;;;;;;;8.93;1.55;;;;;;;;;;5031362;28;20072;-57
2022/01/03 14:23:49;;;;;;;10.23;1.95;;;;;;;;;;5026506;28;20049;-57
2022/01/03 14:26:20;;;;;;;13.95;1.75;;;;;;;;;;5030309;28;20098;-56
2022/01/03 14:28:46;;;;;;;7.95;1.23;;;;;;;;;;5038701;28;20041;-57
2022/01/03 14:31:14;;;;;;;10.73;1.58;;;;;;;;;;5046669;28;20140;-60
2022/01/03 14:33:41;;;;;;;9.20;2.10;;;;;;;;;;5048351;28;20077;-57
2022/01/03 14:36:13;;;;;;;9.95;1.35;;;;;;;;;;5046634;28;20053;-57
2022/01/03 14:38:41;;;;;;;8.88;1.30;;;;;;;;;;5025230;28;20048;-57
2022/01/03 14:41:14;;;;;;;9.73;1.38;;;;;;;;;;5029938;28;20122;-57
2022/01/03 14:43:40;;;;;;;10.10;1.33;;;;;;;;;;5033075;28;20053;-56
2022/01/03 14:46:08;;;;;;;6.30;1.40;;;;;;;;;;5063566;28;20098;-59
2022/01/03 14:48:36;;;;;;;7.28;1.40;;;;;;;;;;5053517;28;20056;-55
2022/01/03 14:51:07;;;;;;;5.32;1.00;;;;;;;;;;5031518;28;20053;-56
2022/01/03 14:53:33;;;;;;;11.32;1.40;;;;;;;;;;5028061;28;20045;-53
2022/01/03 14:56:00;;;;;;;5.72;1.10;;;;;;;;;;5049539;28;20052;-58
2022/01/03 14:58:27;;;;;;;7.72;1.15;;;;;;;;;;5027684;28;20150;-57
2022/01/03 15:00:53;;;;;;;10.45;1.33;;;;;;;;;;5029602;28;20057;-57